Time;durP1;ratioP1;P1;durP2;ratioP2;P2;SDS_P1;SDS_P2;PMS_P1;PMS_P2;Temp;Humidity;BMP_temperature;BMP_pressure;BME280_temperature;BME280_humidity;BME280_pressure;Samples;Min_cycle;Max_cycle;Signal;HPM_P1;HPM_P2
2022/04/10 00:00:53;;;;;;;35.58;3.50;;;;;;;;;;5066859;28;20076;-65
2022/04/10 00:03:19;;;;;;;18.83;3.92;;;;;;;;;;5068174;28;20057;-65
2022/04/10 00:05:46;;;;;;;23.15;3.63;;;;;;;;;;5057615;28;20041;-65
2022/04/10 00:08:12;;;;;;;26.45;3.25;;;;;;;;;;5066091;28;20048;-65
2022/04/10 00:10:38;;;;;;;28.90;4.95;;;;;;;;;;5058250;28;20045;-65
2022/04/10 00:13:04;;;;;;;22.85;3.85;;;;;;;;;;5051336;28;20108;-65
2022/04/10 00:15:30;;;;;;;25.80;3.90;;;;;;;;;;5063372;28;20041;-65
2022/04/10 00:17:56;;;;;;;25.75;3.47;;;;;;;;;;5062168;28;20049;-65
2022/04/10 00:20:23;;;;;;;18.08;3.67;;;;;;;;;;5062012;28;20385;-65
2022/04/10 00:22:49;;;;;;;20.85;3.45;;;;;;;;;;5066257;28;20032;-65
2022/04/10 00:25:17;;;;;;;27.02;3.53;;;5.00;99.90;;;;;;5060173;28;20132;-65
2022/04/10 00:27:43;;;;;;;19.38;2.72;;;;;;;;;;5068807;28;20119;-65
2022/04/10 00:30:11;;;;;;;33.70;3.90;;;5.50;99.90;;;;;;5064740;28;20477;-64
2022/04/10 00:32:37;;;;;;;19.55;3.40;;;;;;;;;;5065929;28;20142;-65
2022/04/10 00:35:07;;;;;;;23.02;3.17;;;;;;;;;;5059580;28;20044;-65
2022/04/10 00:37:34;;;;;;;20.33;3.13;;;5.00;99.90;;;;;;5072824;28;20036;-65
2022/04/10 00:40:00;;;;;;;19.08;2.92;;;;;;;;;;5062340;28;20068;-65
2022/04/10 00:42:40;;;;;;;18.48;3.53;;;4.80;99.90;;;;;;5073993;28;20481;-65
2022/04/10 00:45:07;;;;;;;25.25;3.38;;;5.60;99.90;;;;;;5069870;28;20029;-65
2022/04/10 00:47:33;;;;;;;28.17;3.50;;;;;;;;;;5060430;28;20234;-65
2022/04/10 00:50:01;;;;;;;21.27;3.10;;;4.90;99.90;;;;;;5058556;28;20036;-65
2022/04/10 00:52:28;;;;;;;26.08;3.00;;;;;;;;;;5063805;28;20108;-65
2022/04/10 00:54:54;;;;;;;20.90;3.33;;;;;;;;;;5056872;28;20037;-65
2022/04/10 00:57:20;;;;;;;34.13;3.30;;;;;;;;;;5056719;28;20558;-65
2022/04/10 00:59:46;;;;;;;23.58;3.60;;;;;;;;;;5054246;28;20057;-65
2022/04/10 01:02:13;;;;;;;20.88;3.22;;;;;;;;;;5063017;28;20045;-65
2022/04/10 01:04:40;;;;;;;21.08;2.60;;;;;;;;;;5055194;28;20451;-65
2022/04/10 01:07:06;;;;;;;22.38;2.80;;;;;;;;;;5072354;28;20033;-65
2022/04/10 01:09:33;;;;;;;20.33;3.03;;;;;;;;;;5072083;28;20037;-65
2022/04/10 01:11:59;;;;;;;23.73;3.17;;;;;;;;;;5058963;28;20478;-65
2022/04/10 01:14:25;;;;;;;23.92;3.58;;;;;;;;;;5085742;28;20056;-65
2022/04/10 01:16:51;;;;;;;22.55;4.10;;;;;;;;;;5070607;28;20036;-65
2022/04/10 01:19:18;;;;;;;17.65;3.08;;;;;;;;;;5058263;28;20041;-65
2022/04/10 01:21:46;;;;;;;17.67;3.28;;;;;;;;;;5067336;28;20037;-65
2022/04/10 01:24:12;;;;;;;22.25;2.92;;;;;;;;;;5068436;28;20048;-65
2022/04/10 01:26:38;;;;;;;27.90;2.95;;;;;;;;;;5055957;28;20037;-65
2022/04/10 01:29:08;;;;;;;21.85;2.88;;;;;;;;;;5054183;28;20048;-65
2022/04/10 01:31:42;;;;;;;19.02;2.90;;;;;;;;;;5065908;28;20067;-65
2022/04/10 01:34:10;;;;;;;19.92;3.03;;;;;;;;;;5068845;28;20048;-65
2022/04/10 01:36:36;;;;;;;16.20;2.80;;;;;;;;;;5057385;28;20120;-65
2022/04/10 01:39:04;;;;;;;19.48;2.90;;;;;;;;;;5067297;28;20166;-65
2022/04/10 01:41:30;;;;;;;11.02;2.88;;;;;;;;;;5061242;28;20037;-65
2022/04/10 01:43:57;;;;;;;12.07;2.40;;;;;;;;;;5060939;28;20076;-65
2022/04/10 01:46:25;;;;;;;23.40;2.85;;;;;;;;;;5063518;28;20070;-68
2022/04/10 01:48:51;;;;;;;17.25;3.28;;;;;;;;;;5068556;28;20040;-68
2022/04/10 01:51:17;;;;;;;17.25;2.90;;;;;;;;;;5064902;28;20044;-68
2022/04/10 01:53:43;;;;;;;17.05;2.83;;;;;;;;;;5063413;28;20122;-68
2022/04/10 01:56:10;;;;;;;21.10;3.25;;;;;;;;;;5067607;28;20040;-68
2022/04/10 01:58:37;;;;;;;22.42;4.25;;;;;;;;;;5054427;28;20044;-68
2022/04/10 02:01:04;;;;;;;22.20;3.45;;;;;;;;;;5068201;28;20398;-68
2022/04/10 02:03:30;;;;;;;18.13;2.20;;;;;;;;;;5069430;28;20048;-68
2022/04/10 02:05:57;;;;;;;12.70;3.10;;;;;;;;;;5060099;28;20090;-68
2022/04/10 02:08:23;;;;;;;13.80;2.80;;;;;;;;;;5058346;28;20043;-68
2022/04/10 02:10:50;;;;;;;10.90;3.22;;;;;;;;;;5065126;28;20080;-68
2022/04/10 02:13:15;;;;;;;14.88;3.00;;;4.90;99.90;;;;;;5055342;28;20072;-69
2022/04/10 02:15:42;;;;;;;18.35;4.05;;;;;;;;;;5054061;28;20091;-68
2022/04/10 02:18:07;;;;;;;15.38;2.45;;;4.60;99.90;;;;;;5068541;28;20424;-69
2022/04/10 02:20:33;;;;;;;22.35;2.78;;;;;;;;;;5070679;28;20051;-69
2022/04/10 02:23:00;;;;;;;6.78;2.25;;;;;;;;;;5067694;28;20032;-70
2022/04/10 02:25:26;;;;;;;9.07;2.28;;;;;;;;;;5065190;28;20037;-69
2022/04/10 02:27:52;;;;;;;16.30;2.65;;;;;;;;;;5066547;28;20041;-69
2022/04/10 02:30:18;;;;;;;14.77;2.60;;;;;;;;;;5068751;28;20037;-69
2022/04/10 02:32:45;;;;;;;13.63;2.58;;;;;;;;;;5064286;28;20043;-69
2022/04/10 02:35:11;;;;;;;18.50;2.65;;;;;;;;;;5070800;28;20079;-69
2022/04/10 02:37:37;;;;;;;15.57;1.77;;;;;;;;;;5060842;28;20477;-69
2022/04/10 02:40:05;;;;;;;12.77;2.10;;;4.10;99.90;;;;;;5055908;28;20032;-69
2022/04/10 02:42:33;;;;;;;16.75;1.88;;;4.50;99.90;;;;;;5061437;28;20157;-69
2022/04/10 02:45:00;;;;;;;4.68;1.30;;;;;;;;;;5070318;28;20111;-69
2022/04/10 02:47:26;;;;;;;1.33;0.80;;;4.80;99.90;;;;;;5067484;28;20052;-68
2022/04/10 02:49:52;;;;;;;3.50;1.83;;;;;;;;;;5068233;28;20036;-68
2022/04/10 02:52:18;;;;;;;4.53;1.30;;;;;;;;;;5054388;28;20041;-68
2022/04/10 02:54:44;;;;;;;3.88;1.25;;;;;;;;;;5053550;28;20127;-68
2022/04/10 02:57:11;;;;;;;5.22;2.10;;;;;;;;;;5054397;28;20045;-68
2022/04/10 02:59:37;;;;;;;3.65;1.35;;;;;;;;;;5060634;28;20041;-68
2022/04/10 03:02:04;;;;;;;7.43;2.03;;;;;;;;;;5054219;28;20112;-68
2022/04/10 03:04:30;;;;;;;2.65;1.20;;;;;;;;;;5061709;28;20041;-68
2022/04/10 03:06:56;;;;;;;5.80;1.48;;;;;;;;;;5054399;28;20060;-68
2022/04/10 03:09:22;;;;;;;5.82;1.98;;;;;;;;;;5054735;28;20122;-68
2022/04/10 03:11:48;;;;;;;6.00;1.48;;;;;;;;;;5063572;28;20481;-68
2022/04/10 03:14:14;;;;;;;5.93;1.50;;;;;;;;;;5055231;28;20107;-68
2022/04/10 03:16:40;;;;;;;10.15;1.42;;;;;;;;;;5051829;28;20505;-68
2022/04/10 03:19:06;;;;;;;10.48;1.77;;;;;;;;;;5057907;28;20076;-68
2022/04/10 03:21:32;;;;;;;12.55;1.73;;;;;;;;;;5053159;28;20147;-68
2022/04/10 03:23:58;;;;;;;10.68;2.03;;;;;;;;;;5058544;28;20040;-68
2022/04/10 03:26:24;;;;;;;12.35;1.65;;;;;;;;;;5053534;28;20060;-68
2022/04/10 03:28:50;;;;;;;14.98;2.03;;;;;;;;;;5052870;28;20044;-68
2022/04/10 03:31:17;;;;;;;8.02;2.00;;;;;;;;;;5051723;28;20045;-68
2022/04/10 03:33:43;;;;;;;9.18;2.15;;;;;;;;;;5055191;28;20084;-68
2022/04/10 03:36:09;;;;;;;11.80;2.10;;;;;;;;;;5053123;28;20037;-68
2022/04/10 03:38:34;;;;;;;14.32;1.92;;;4.30;99.90;;;;;;5053812;28;20068;-68
2022/04/10 03:41:00;;;;;;;15.00;2.03;;;;;;;;;;5082511;28;20519;-68
2022/04/10 03:43:26;;;;;;;13.93;2.30;;;;;;;;;;5060133;28;20040;-69
2022/04/10 03:45:52;;;;;;;13.77;2.15;;;4.40;99.90;;;;;;5069582;28;20032;-69
2022/04/10 03:48:18;;;;;;;9.15;2.22;;;;;;;;;;5065529;28;20513;-68
2022/04/10 03:50:44;;;;;;;12.98;2.35;;;;;;;;;;5068776;28;20036;-68
2022/04/10 03:53:10;;;;;;;8.43;1.83;;;;;;;;;;5056985;28;20037;-68
2022/04/10 03:55:36;;;;;;;10.48;2.30;;;;;;;;;;5052855;28;20036;-68
2022/04/10 03:58:02;;;;;;;13.82;2.60;;;;;;;;;;5058932;28;20068;-68
2022/04/10 04:00:28;;;;;;;16.15;2.22;;;;;;;;;;5052518;28;20045;-68
2022/04/10 04:02:54;;;;;;;15.85;3.00;;;;;;;;;;5060123;28;20051;-68
2022/04/10 04:05:20;;;;;;;11.35;2.33;;;;;;;;;;5054955;28;20095;-68
2022/04/10 04:07:47;;;;;;;13.75;2.67;;;;;;;;;;5045645;28;20041;-68
2022/04/10 04:10:13;;;;;;;19.27;2.30;;;;;;;;;;5071994;28;20090;-68
2022/04/10 04:12:39;;;;;;;9.25;2.33;;;;;;;;;;5067133;28;20047;-68
2022/04/10 04:15:05;;;;;;;13.15;2.08;;;;;;;;;;5073372;28;20472;-68
2022/04/10 04:17:31;;;;;;;11.80;2.60;;;;;;;;;;5069719;28;20048;-68
2022/04/10 04:19:58;;;;;;;14.00;2.30;;;;;;;;;;5058338;28;20037;-68
2022/04/10 04:22:24;;;;;;;8.23;2.10;;;;;;;;;;5070202;28;20044;-68
2022/04/10 04:24:50;;;;;;;11.90;1.90;;;;;;;;;;5071242;28;20064;-69
2022/04/10 04:27:16;;;;;;;18.88;2.15;;;;;;;;;;5058375;28;20029;-69
2022/04/10 04:29:42;;;;;;;17.55;2.47;;;;;;;;;;5068924;28;20122;-69
2022/04/10 04:32:08;;;;;;;14.00;2.15;;;4.40;99.90;;;;;;5059723;28;20048;-68
2022/04/10 04:34:34;;;;;;;14.52;2.28;;;;;;;;;;5071008;28;20437;-69
2022/04/10 04:37:00;;;;;;;19.75;2.63;;;;;;;;;;5062794;28;20404;-69
2022/04/10 04:39:26;;;;;;;12.13;2.40;;;;;;;;;;5060523;28;20398;-69
2022/04/10 04:41:52;;;;;;;10.68;1.95;;;;;;;;;;5055951;28;20389;-69
2022/04/10 04:44:18;;;;;;;9.48;2.00;;;;;;;;;;5066111;28;20510;-69
2022/04/10 04:46:44;;;;;;;13.75;2.63;;;;;;;;;;5066824;28;20056;-68
2022/04/10 04:49:10;;;;;;;19.15;2.03;;;;;;;;;;5068117;28;20032;-68
2022/04/10 04:51:36;;;;;;;14.88;2.40;;;;;;;;;;5056348;28;20410;-68
2022/04/10 04:54:04;;;;;;;17.48;3.00;;;4.40;99.90;;;;;;5068608;28;20044;-68
2022/04/10 04:56:31;;;;;;;13.27;1.95;;;;;;;;;;5071190;28;20047;-68
2022/04/10 04:58:57;;;;;;;14.93;2.58;;;;;;;;;;5062154;28;20052;-68
2022/04/10 05:01:23;;;;;;;12.43;2.42;;;;;;;;;;5055514;28;20041;-69
2022/04/10 05:03:49;;;;;;;12.23;2.60;;;;;;;;;;5062351;28;20048;-68
2022/04/10 05:06:15;;;;;;;11.73;3.28;;;;;;;;;;5069403;28;20071;-68
2022/04/10 05:08:42;;;;;;;16.60;2.42;;;;;;;;;;5063526;28;20117;-68
2022/04/10 05:11:10;;;;;;;8.27;1.92;;;4.70;99.90;;;;;;5071120;28;20044;-68
2022/04/10 05:13:36;;;;;;;12.15;2.20;;;;;;;;;;5066474;28;20048;-68
2022/04/10 05:16:02;;;;;;;10.00;1.83;;;;;;;;;;5053905;28;20505;-68
2022/04/10 05:18:29;;;;;;;21.52;2.20;;;;;;;;;;5060873;28;20093;-68
2022/04/10 05:20:55;;;;;;;13.13;1.85;;;;;;;;;;5054774;28;20430;-68
2022/04/10 05:23:21;;;;;;;7.88;1.65;;;4.00;99.90;;;;;;5066149;28;20558;-69
2022/04/10 05:25:47;;;;;;;5.75;1.77;;;4.30;99.90;;;;;;5059565;28;20061;-67
2022/04/10 05:28:14;;;;;;;5.57;1.58;;;;;;;;;;5069411;28;20036;-68
2022/04/10 05:30:41;;;;;;;9.82;2.10;;;;;;;;;;5082605;28;20033;-68
2022/04/10 05:33:07;;;;;;;14.98;1.92;;;;;;;;;;5069247;28;20072;-68
2022/04/10 05:35:33;;;;;;;9.45;1.88;;;;;;;;;;5053615;28;20048;-68
2022/04/10 05:38:00;;;;;;;16.25;2.25;;;;;;;;;;5054822;28;20508;-68
2022/04/10 05:40:26;;;;;;;10.88;2.03;;;;;;;;;;5061206;28;20037;-68
2022/04/10 05:42:52;;;;;;;14.68;2.28;;;;;;;;;;5070945;28;20120;-69
2022/04/10 05:45:18;;;;;;;7.90;2.13;;;;;;;;;;5057028;28;20057;-68
2022/04/10 05:47:44;;;;;;;14.30;2.40;;;;;;;;;;5053746;28;20125;-68
2022/04/10 05:50:10;;;;;;;11.10;2.38;;;;;;;;;;5066520;28;20032;-68
2022/04/10 05:52:41;;;;;;;7.97;1.70;;;4.60;99.90;;;;;;5053440;28;20048;-68
2022/04/10 05:55:08;;;;;;;10.27;2.03;;;;;;;;;;5066114;28;20049;-68
2022/04/10 05:57:34;;;;;;;15.73;2.25;;;4.60;99.90;;;;;;5059587;28;20045;-69
2022/04/10 06:00:01;;;;;;;9.80;1.83;;;;;;;;;;5065897;28;20032;-68
2022/04/10 06:02:27;;;;;;;11.98;2.05;;;;;;;;;;5071174;28;20044;-68
2022/04/10 06:04:53;;;;;;;8.02;1.90;;;;;;;;;;5063605;28;20499;-68
2022/04/10 06:07:20;;;;;;;9.48;2.13;;;;;;;;;;5062937;28;20127;-68
2022/04/10 06:09:46;;;;;;;8.18;2.40;;;;;;;;;;5064446;28;20094;-68
2022/04/10 06:12:12;;;;;;;17.58;2.30;;;;;;;;;;5070973;28;20040;-68
2022/04/10 06:14:38;;;;;;;27.00;2.95;;;;;;;;;;5063781;28;20044;-68
2022/04/10 06:17:04;;;;;;;17.45;2.35;;;5.20;99.90;;;;;;5053860;28;20041;-70
2022/04/10 06:19:30;;;;;;;15.18;2.53;;;;;;;;;;5060746;28;20042;-68
2022/04/10 06:21:56;;;;;;;14.50;2.65;;;;;;;;;;5058630;28;20037;-69
2022/04/10 06:24:22;;;;;;;21.67;3.67;;;;;;;;;;5059230;28;20121;-68
2022/04/10 06:26:51;;;;;;;15.40;2.88;;;;;;;;;;5069170;28;20784;-68
2022/04/10 06:29:17;;;;;;;13.93;2.42;;;;;;;;;;5056237;28;20134;-69
2022/04/10 06:31:43;;;;;;;16.35;3.08;;;;;;;;;;5056788;28;20041;-69
2022/04/10 06:34:10;;;;;;;20.35;2.97;;;;;;;;;;5066648;28;20036;-69
2022/04/10 06:36:36;;;;;;;21.98;4.53;;;;;;;;;;5042277;28;20114;-69
2022/04/10 06:39:03;;;;;;;16.60;2.42;;;;;;;;;;5052110;28;20071;-68
2022/04/10 06:41:29;;;;;;;17.40;3.40;;;;;;;;;;5068880;28;20048;-65
2022/04/10 06:43:55;;;;;;;21.90;2.70;;;;;;;;;;5060823;28;20124;-65
2022/04/10 06:46:21;;;;;;;18.65;3.45;;;;;;;;;;5067508;28;20657;-65
2022/04/10 06:48:47;;;;;;;15.82;2.38;;;;;;;;;;5056223;28;20041;-65
2022/04/10 06:51:14;;;;;;;21.45;4.68;;;;;;;;;;5057129;28;20032;-65
2022/04/10 06:53:40;;;;;;;14.98;2.97;;;;;;;;;;5064631;28;20040;-65
2022/04/10 06:56:06;;;;;;;17.67;2.40;;;;;;;;;;5068869;28;20029;-65
2022/04/10 06:58:32;;;;;;;20.02;2.72;;;;;;;;;;5069774;28;20082;-65
2022/04/10 07:00:58;;;;;;;19.58;2.97;;;;;;;;;;5059563;28;20036;-65
2022/04/10 07:03:24;;;;;;;24.50;2.65;;;;;;;;;;5068132;28;20064;-65
2022/04/10 07:05:50;;;;;;;23.05;2.78;;;;;;;;;;5063954;28;20370;-65
2022/04/10 07:08:16;;;;;;;18.92;2.70;;;;;;;;;;5036970;28;20044;-65
2022/04/10 07:10:42;;;;;;;14.88;2.92;;;;;;;;;;5060243;28;20150;-65
2022/04/10 07:13:08;;;;;;;14.55;2.63;;;;;;;;;;5070816;28;20032;-65
2022/04/10 07:15:34;;;;;;;17.50;2.92;;;;;;;;;;5060841;28;20166;-65
2022/04/10 07:18:00;;;;;;;17.67;2.47;;;;;;;;;;5054868;28;20127;-65
2022/04/10 07:20:27;;;;;;;15.35;2.40;;;;;;;;;;5069484;28;20504;-65
2022/04/10 07:25:38;;;;;;;9.40;2.22;;;;;;;;;;5059041;28;20048;-65
2022/04/10 07:28:04;;;;;;;19.50;2.88;;;;;;;;;;5070651;28;20548;-65
2022/04/10 07:30:31;;;;;;;15.73;3.10;;;;;;;;;;5061208;28;20153;-65
2022/04/10 07:32:57;;;;;;;15.27;2.65;;;6.70;99.90;;;;;;5049464;28;20049;-65
2022/04/10 07:35:27;;;;;;;17.42;2.72;;;;;;;;;;5072107;28;20159;-65
2022/04/10 07:37:53;;;;;;;17.55;2.65;;;;;;;;;;5049266;28;20045;-66
2022/04/10 07:40:22;;;;;;;16.25;2.80;;;7.50;99.90;;;;;;5060253;28;20076;-65
2022/04/10 07:42:48;;;;;;;19.52;2.58;;;;;;;;;;5056729;28;20043;-65
2022/04/10 07:47:59;;;;;;;16.08;2.92;;;;;;;;;;5073780;28;20059;-65
2022/04/10 07:50:26;;;;;;;16.77;2.92;;;;;;;;;;5069459;28;20049;-65
2022/04/10 07:52:52;;;;;;;16.98;2.13;;;;;;;;;;5055078;28;20049;-65
2022/04/10 07:55:18;;;;;;;16.70;2.45;;;;;;;;;;5069638;28;20123;-66
2022/04/10 07:57:44;;;;;;;11.98;2.28;;;;;;;;;;5056259;28;20095;-65
2022/04/10 08:00:11;;;;;;;12.70;3.17;;;;;;;;;;5056472;28;20041;-65
2022/04/10 08:02:42;;;;;;;12.13;1.92;;;;;;;;;;5054928;28;20048;-65
2022/04/10 08:05:08;;;;;;;12.90;1.95;;;7.60;99.90;;;;;;5056344;28;20048;-65
2022/04/10 08:07:35;;;;;;;13.82;2.40;;;;;;;;;;5064265;28;20072;-65
2022/04/10 08:10:01;;;;;;;14.45;3.15;;;;;;;;;;5068526;28;20037;-65
2022/04/10 08:12:27;;;;;;;13.73;2.00;;;;;;;;;;5062164;28;20064;-65
2022/04/10 08:14:53;;;;;;;17.50;2.28;;;;;;;;;;5069180;28;20036;-66
2022/04/10 08:17:19;;;;;;;11.18;2.20;;;;;;;;;;5059355;28;21413;-65
2022/04/10 08:19:45;;;;;;;21.35;2.95;;;;;;;;;;5073589;28;20184;-65
2022/04/10 08:22:11;;;;;;;15.48;2.42;;;;;;;;;;5060270;28;20444;-66
2022/04/10 08:24:37;;;;;;;14.70;2.70;;;;;;;;;;5084624;28;20477;-66
2022/04/10 08:27:04;;;;;;;24.60;3.30;;;;;;;;;;5065592;28;20043;-67
2022/04/10 08:29:30;;;;;;;14.68;2.55;;;;;;;;;;5072838;28;20043;-66
2022/04/10 08:31:56;;;;;;;12.95;2.60;;;;;;;;;;5064557;28;20041;-66
2022/04/10 08:34:22;;;;;;;22.63;3.08;;;;;;;;;;5060079;28;20132;-66
2022/04/10 08:36:48;;;;;;;16.88;2.67;;;;;;;;;;5064977;28;20083;-66
2022/04/10 08:39:14;;;;;;;18.77;3.78;;;;;;;;;;5055975;28;20048;-66
2022/04/10 08:41:40;;;;;;;23.63;2.88;;;;;;;;;;5068235;28;20032;-66
2022/04/10 08:44:06;;;;;;;17.02;3.13;;;;;;;;;;5055526;28;20037;-66
2022/04/10 08:46:36;;;;;;;12.10;2.05;;;;;;;;;;5058330;28;20043;-66
2022/04/10 08:49:02;;;;;;;11.93;2.20;;;;;;;;;;5071236;28;20098;-65
2022/04/10 08:51:28;;;;;;;12.60;2.35;;;;;;;;;;5068174;28;20041;-65
2022/04/10 08:53:55;;;;;;;16.75;3.13;;;7.60;98.90;;;;;;5073633;28;20036;-65
2022/04/10 08:56:22;;;;;;;20.02;2.60;;;7.50;98.40;;;;;;5069471;28;20040;-65
2022/04/10 08:58:49;;;;;;;19.35;2.60;;;7.80;98.60;;;;;;5054105;28;20048;-66
2022/04/10 09:01:19;;;;;;;12.07;2.17;;;7.70;98.60;;;;;;5062977;28;20083;-65
2022/04/10 09:03:46;;;;;;;18.75;2.40;;;7.40;99.90;;;;;;5055364;28;20051;-65
2022/04/10 09:06:13;;;;;;;14.82;3.42;;;;;;;;;;5060097;28;20049;-65
2022/04/10 09:08:39;;;;;;;20.35;2.75;;;;;;;;;;5054821;28;20041;-65
2022/04/10 09:11:06;;;;;;;14.20;2.05;;;7.60;97.60;;;;;;5055012;28;20044;-65
2022/04/10 09:13:32;;;;;;;14.85;2.45;;;;;;;;;;5081844;28;20056;-65
2022/04/10 09:16:02;;;;;;;16.58;2.10;;;;;;;;;;5058934;28;20541;-65
2022/04/10 09:18:29;;;;;;;22.38;2.40;;;;;;;;;;5058908;28;20116;-65
2022/04/10 09:21:08;;;;;;;18.67;2.30;;;;;;;;;;5085873;28;20461;-65
2022/04/10 09:23:34;;;;;;;20.08;3.05;;;;;;;;;;5064252;28;20033;-66
2022/04/10 09:26:01;;;;;;;15.95;3.95;;;;;;;;;;5054983;28;20059;-66
2022/04/10 09:28:42;;;;;;;11.95;2.35;;;8.10;97.30;;;;;;5058107;28;20127;-65
2022/04/10 09:31:27;;;;;;;12.63;2.55;;;8.50;98.30;;;;;;5056429;28;20045;-65
2022/04/10 09:33:54;;;;;;;14.43;2.30;;;;;;;;;;5065844;28;20463;-66
2022/04/10 09:36:42;;;;;;;14.70;2.55;;;8.50;97.50;;;;;;5055636;28;20041;-66
2022/04/10 09:39:29;;;;;;;19.42;3.40;;;;;;;;;;5051996;28;20053;-65
2022/04/10 09:42:02;;;;;;;15.02;2.58;;;;;;;;;;5062142;28;20032;-66
2022/04/10 09:44:32;;;;;;;14.73;2.35;;;;;;;;;;5061349;28;20361;-65
2022/04/10 09:47:16;;;;;;;13.90;2.70;;;;;;;;;;5065127;28;20045;-65
2022/04/10 09:49:43;;;;;;;20.70;2.45;;;;;;;;;;5072094;28;20131;-65
2022/04/10 09:52:11;;;;;;;14.13;2.47;;;;;;;;;;5062311;28;20115;-65
2022/04/10 09:54:41;;;;;;;18.58;2.55;;;;;;;;;;5069064;28;20045;-65
2022/04/10 09:57:14;;;;;;;13.50;3.00;;;8.60;97.00;;;;;;5042204;28;20546;-68
2022/04/10 09:59:43;;;;;;;14.80;2.53;;;;;;;;;;5060290;28;20053;-68
2022/04/10 10:02:23;;;;;;;17.95;2.40;;;8.50;97.00;;;;;;5057502;28;20378;-68
2022/04/10 10:04:50;;;;;;;16.08;2.45;;;;;;;;;;5052872;28;20055;-68
2022/04/10 10:07:20;;;;;;;14.00;2.10;;;;;;;;;;5064658;28;20389;-69
2022/04/10 10:09:48;;;;;;;13.65;2.97;;;8.60;96.30;;;;;;5067067;28;20036;-68
2022/04/10 10:12:15;;;;;;;20.92;2.75;;;;;;;;;;5066736;28;20033;-68
2022/04/10 10:14:41;;;;;;;21.15;2.83;;;;;;;;;;5057826;28;20041;-68
2022/04/10 10:17:08;;;;;;;15.02;2.30;;;9.00;95.50;;;;;;5054920;28;20700;-68
2022/04/10 10:19:38;;;;;;;13.07;2.08;;;;;;;;;;5055809;28;20052;-68
2022/04/10 10:22:08;;;;;;;11.35;2.13;;;;;;;;;;5053558;28;20039;-68
2022/04/10 10:24:43;;;;;;;7.07;1.83;;;9.10;95.50;;;;;;5058707;28;20039;-68
2022/04/10 10:27:21;;;;;;;7.15;2.10;;;;;;;;;;5061189;28;20117;-69
2022/04/10 10:30:03;;;;;;;9.05;2.05;;;;;;;;;;5051014;28;20040;-69
2022/04/10 10:32:48;;;;;;;13.13;2.47;;;;;;;;;;5068442;28;20036;-68
2022/04/10 10:35:34;;;;;;;10.48;1.98;;;;;;;;;;5069690;28;20036;-69
2022/04/10 10:38:01;;;;;;;12.57;2.55;;;;;;;;;;5071912;28;20123;-68
2022/04/10 10:40:27;;;;;;;11.18;3.17;;;;;;;;;;5069550;28;20098;-68
2022/04/10 10:42:59;;;;;;;21.90;3.20;;;;;;;;;;5068343;28;20488;-69
2022/04/10 10:45:45;;;;;;;16.02;3.10;;;9.20;95.30;;;;;;5067955;28;20091;-68
2022/04/10 10:48:33;;;;;;;10.98;2.75;;;9.20;94.60;;;;;;5057875;28;20140;-68
2022/04/10 10:51:10;;;;;;;22.33;2.72;;;8.90;94.30;;;;;;5050664;28;20045;-68
2022/04/10 10:53:44;;;;;;;16.33;2.83;;;;;;;;;;5060015;28;20055;-68
2022/04/10 10:56:19;;;;;;;18.60;2.22;;;8.70;94.90;;;;;;5052239;28;20378;-68
2022/04/10 10:58:45;;;;;;;21.17;2.20;;;;;;;;;;5057590;28;20052;-68
2022/04/10 11:01:19;;;;;;;9.98;2.38;;;9.10;95.60;;;;;;5075430;28;20093;-68
2022/04/10 11:04:05;;;;;;;15.15;2.15;;;9.30;95.10;;;;;;5055426;28;20377;-68
2022/04/10 11:06:41;;;;;;;13.25;1.95;;;9.20;94.20;;;;;;5051762;28;20051;-69
2022/04/10 11:09:24;;;;;;;14.32;3.05;;;;;;;;;;5063678;28;20122;-68
2022/04/10 11:11:50;;;;;;;9.88;2.10;;;;;;;;;;5069475;28;20484;-68
2022/04/10 11:14:41;;;;;;;10.18;2.30;;;9.40;94.00;;;;;;5059625;28;20044;-69
2022/04/10 11:17:20;;;;;;;9.02;2.15;;;;;;;;;;5069872;28;20178;-69
2022/04/10 11:19:50;;;;;;;10.90;2.85;;;;;;;;;;5050277;28;20049;-69
2022/04/10 11:22:22;;;;;;;17.85;3.08;;;9.20;94.90;;;;;;5068016;28;20039;-69
2022/04/10 11:24:58;;;;;;;13.05;2.47;;;9.10;94.80;;;;;;5060230;28;20044;-69
2022/04/10 11:27:55;;;;;;;10.38;2.20;;;9.10;94.60;;;;;;5062118;28;20044;-69
2022/04/10 11:30:37;;;;;;;9.85;2.30;;;9.30;93.70;;;;;;5068039;28;20052;-69
2022/04/10 11:33:04;;;;;;;12.85;2.35;;;;;;;;;;5052456;28;20579;-69
2022/04/10 11:35:31;;;;;;;11.90;2.05;;;;;;;;;;5054954;28;20037;-69
2022/04/10 11:38:07;;;;;;;18.63;3.50;;;;;;;;;;5067756;28;20045;-69
2022/04/10 11:40:34;;;;;;;15.75;2.90;;;;;;;;;;5054775;28;20068;-69
2022/04/10 11:43:02;;;;;;;18.80;2.50;;;;;;;;;;5071761;28;20515;-69
2022/04/10 11:45:30;;;;;;;11.82;1.98;;;10.10;93.60;;;;;;5071690;28;20048;-68
2022/04/10 11:47:56;;;;;;;13.98;2.45;;;;;;;;;;5072757;28;20033;-69
2022/04/10 11:50:25;;;;;;;20.02;2.92;;;10.40;93.50;;;;;;5072823;28;20113;-68
2022/04/10 11:53:11;;;;;;;9.43;2.58;;;;;;;;;;5071703;28;20029;-68
2022/04/10 11:55:39;;;;;;;10.13;2.30;;;;;;;;;;5071355;28;20044;-68
2022/04/10 11:58:22;;;;;;;13.43;2.25;;;10.30;93.60;;;;;;5071426;28;20040;-68
2022/04/10 12:00:59;;;;;;;11.80;1.70;;;10.10;94.00;;;;;;5071757;28;20037;-68
2022/04/10 12:03:27;;;;;;;15.38;2.00;;;;;;;;;;5071007;28;20539;-68
2022/04/10 12:05:54;;;;;;;18.50;2.92;;;;;;;;;;5071118;28;20036;-69
2022/04/10 12:08:20;;;;;;;13.80;2.08;;;;;;;;;;5064219;28;20044;-70
2022/04/10 12:10:53;;;;;;;7.43;2.75;;;;;;;;;;5054113;28;20095;-71
2022/04/10 12:13:18;;;;;;;;;;;10.70;94.10;;;;;;5059943;28;20400;-71
2022/04/10 12:15:45;;;;;;;12.70;2.42;;;;;;;;;;5067734;28;19974;-71
2022/04/10 12:18:12;;;;;;;8.05;2.00;;;;;;;;;;5050030;28;20074;-71
2022/04/10 12:20:43;;;;;;;11.88;1.65;;;;;;;;;;5062151;28;20071;-68
2022/04/10 12:23:35;;;;;;;9.82;2.25;;;;;;;;;;5051117;28;20205;-68
2022/04/10 12:26:02;;;;;;;8.10;1.77;;;11.70;96.30;;;;;;5071597;28;20052;-68
2022/04/10 12:28:29;;;;;;;10.48;1.77;;;11.00;92.00;;;;;;5055692;28;20055;-68
2022/04/10 12:30:58;;;;;;;8.48;1.80;;;;;;;;;;5059915;28;20048;-69
2022/04/10 12:33:24;;;;;;;12.07;1.92;;;;;;;;;;5065372;28;20492;-69
2022/04/10 12:35:50;;;;;;;13.75;2.20;;;;;;;;;;5065596;28;20389;-69
2022/04/10 12:38:16;;;;;;;13.40;1.92;;;;;;;;;;5060534;28;20037;-69
2022/04/10 12:40:43;;;;;;;13.68;2.58;;;;;;;;;;5069085;28;20037;-69
2022/04/10 12:43:09;;;;;;;11.43;1.75;;;;;;;;;;5058030;28;20079;-69
2022/04/10 12:45:37;;;;;;;13.82;3.45;;;11.50;95.40;;;;;;5055693;28;20036;-69
2022/04/10 12:48:19;;;;;;;12.93;2.22;;;11.50;91.90;;;;;;5071564;28;20079;-69
2022/04/10 12:50:45;;;;;;;10.57;2.27;;;;;;;;;;5063833;28;20109;-69
2022/04/10 12:53:11;;;;;;;9.50;1.55;;;;;;;;;;5054254;28;20040;-70
2022/04/10 12:55:38;;;;;;;7.90;1.75;;;;;;;;;;5066326;28;20091;-69
2022/04/10 12:58:07;;;;;;;11.10;2.03;;;11.70;91.00;;;;;;5061832;28;20048;-68
2022/04/10 13:00:33;;;;;;;10.15;1.80;;;;;;;;;;5071204;28;20047;-69
2022/04/10 13:03:20;;;;;;;8.68;2.15;;;11.90;90.90;;;;;;5072338;28;20048;-69
2022/04/10 13:06:02;;;;;;;9.27;1.65;;;;;;;;;;5064295;28;20096;-69
2022/04/10 13:08:33;;;;;;;12.52;2.10;;;11.90;90.60;;;;;;5064137;28;20040;-69
2022/04/10 13:10:59;;;;;;;10.38;1.70;;;;;;;;;;5066738;28;20051;-69
2022/04/10 13:13:26;;;;;;;13.35;2.03;;;11.50;90.60;;;;;;5054143;28;20049;-69
2022/04/10 13:15:52;;;;;;;12.40;2.28;;;;;;;;;;5066805;28;20045;-69
2022/04/10 13:18:28;;;;;;;12.52;1.95;;;11.70;91.90;;;;;;5069340;28;20036;-69
2022/04/10 13:20:55;;;;;;;11.15;3.03;;;;;;;;;;5070853;28;20028;-69
2022/04/10 13:23:21;;;;;;;15.18;2.25;;;;;;;;;;5071932;28;20473;-69
2022/04/10 13:25:47;;;;;;;16.77;2.63;;;;;;;;;;5058893;28;20436;-68
2022/04/10 13:28:14;;;;;;;8.20;2.40;;;;;;;;;;5069209;28;20044;-69
2022/04/10 13:30:40;;;;;;;17.35;2.05;;;11.40;91.30;;;;;;5051479;28;20033;-69
2022/04/10 13:33:06;;;;;;;10.20;1.85;;;;;;;;;;5055184;28;21586;-69
2022/04/10 13:35:32;;;;;;;6.13;1.63;;;;;;;;;;5069827;28;20048;-69
2022/04/10 13:37:58;;;;;;;12.45;2.15;;;11.50;91.40;;;;;;5060895;28;20039;-69
2022/04/10 13:40:26;;;;;;;14.25;2.28;;;;;;;;;;5065192;28;20507;-69
2022/04/10 13:42:52;;;;;;;16.30;3.83;;;11.40;93.10;;;;;;5067717;28;20049;-69
2022/04/10 13:45:18;;;;;;;9.95;1.77;;;12.00;91.00;;;;;;5070236;28;20036;-69
2022/04/10 13:47:45;;;;;;;10.57;1.92;;;;;;;;;;5059624;28;20120;-69
2022/04/10 13:50:11;;;;;;;12.40;2.00;;;;;;;;;;5054823;28;20040;-69
2022/04/10 13:52:37;;;;;;;9.43;2.42;;;;;;;;;;5066398;28;20402;-69
2022/04/10 13:55:05;;;;;;;10.23;1.95;;;12.40;91.90;;;;;;5058404;28;20037;-69
2022/04/10 13:57:31;;;;;;;8.05;1.65;;;;;;;;;;5059364;28;20044;-69
2022/04/10 13:59:57;;;;;;;11.45;3.08;;;;;;;;;;5057172;28;20126;-69
2022/04/10 14:02:23;;;;;;;9.68;2.45;;;;;;;;;;5062763;28;20041;-69
2022/04/10 14:04:50;;;;;;;10.43;1.77;;;;;;;;;;5072568;28;20076;-69
2022/04/10 14:07:16;;;;;;;15.63;2.28;;;;;;;;;;5063548;28;20106;-69
2022/04/10 14:09:42;;;;;;;8.52;2.20;;;;;;;;;;5056085;28;20041;-69
2022/04/10 14:12:09;;;;;;;9.77;1.95;;;;;;;;;;5054207;28;20053;-69
2022/04/10 14:14:36;;;;;;;14.15;2.20;;;11.80;90.50;;;;;;5061711;28;20076;-69
2022/04/10 14:17:03;;;;;;;13.27;2.47;;;;;;;;;;5064346;28;20051;-69
2022/04/10 14:19:29;;;;;;;7.68;2.15;;;12.80;94.00;;;;;;5061136;28;20045;-69